Time;durP1;ratioP1;P1;durP2;ratioP2;P2;SDS_P1;SDS_P2;PMS_P1;PMS_P2;Temp;Humidity;BMP_temperature;BMP_pressure;BME280_temperature;BME280_humidity;BME280_pressure;Samples;Min_cycle;Max_cycle;Signal;HPM_P1;HPM_P2
2022/01/02 00:02:12;;;;;;;19.63;8.88;;;;;;;13.79;64.72;101703.34;5192702;28;20493;-42
2022/01/02 00:04:49;;;;;;;19.50;8.95;;;;;;;13.76;64.81;101698.34;5204133;28;20468;-43
2022/01/02 00:07:26;;;;;;;14.53;8.57;;;;;;;13.73;64.97;101693.31;5201124;28;20421;-42
2022/01/02 00:10:05;;;;;;;19.73;8.88;;;;;;;13.65;65.01;101673.81;5190612;28;20441;-43
2022/01/02 00:12:44;;;;;;;18.85;9.50;;;;;;;13.70;65.02;101677.69;5193469;28;20892;-43
2022/01/02 00:15:19;;;;;;;21.38;8.68;;;;;;;13.68;65.22;101669.03;5188936;28;20421;-43
2022/01/02 00:17:53;;;;;;;25.73;10.00;;;;;;;13.65;65.18;101656.06;5191840;28;20820;-44
2022/01/02 00:20:32;;;;;;;18.45;8.93;;;;;;;13.65;65.17;101649.91;5194919;28;20448;-43
2022/01/02 00:23:07;;;;;;;17.58;8.95;;;;;;;13.63;65.36;101646.56;5194932;28;20433;-43
2022/01/02 00:25:41;;;;;;;14.63;8.88;;;;;;;13.60;65.32;101650.38;5193891;28;20546;-44
2022/01/02 00:28:14;;;;;;;20.10;8.15;;;;;;;13.58;65.46;101647.03;5192616;28;20498;-43
2022/01/02 00:30:49;;;;;;;20.40;9.20;;;;;;;13.57;65.60;101640.06;5198455;28;20432;-43
2022/01/02 00:33:22;;;;;;;20.42;8.10;;;;;;;13.58;65.38;101641.72;5189623;28;20431;-43
2022/01/02 00:36:27;;;;;;;22.70;9.87;;;;;;;13.55;65.57;101642.03;5197755;28;20447;-48
2022/01/02 00:38:59;;;;;;;21.25;8.52;;;;;;;13.54;65.50;101645.69;5190916;28;20418;-44
2022/01/02 00:41:42;;;;;;;24.25;8.70;;;;;;;13.51;65.67;101649.47;5191073;28;20514;-44
2022/01/02 00:44:29;;;;;;;18.92;9.00;;;;;;;13.50;65.75;101646.94;5192067;28;20417;-45
2022/01/02 00:47:09;;;;;;;22.00;9.25;;;;;;;13.51;65.71;101640.66;5188478;28;20415;-46
2022/01/02 00:49:46;;;;;;;18.10;8.77;;;;;;;13.50;65.71;101637.19;5198157;28;20422;-44
2022/01/02 00:52:21;;;;;;;17.67;8.98;;;;;;;13.52;65.84;101631.72;5187968;28;20414;-48
2022/01/02 00:54:57;;;;;;;18.92;8.43;;;;;;;13.53;65.78;101628.06;5200759;28;21498;-43
2022/01/02 00:57:34;;;;;;;17.35;8.55;;;;;;;13.52;65.90;101610.47;5195386;28;20915;-43
2022/01/02 01:00:13;;;;;;;16.73;8.07;;;;;;;13.48;65.94;101602.00;5195086;28;20412;-43
2022/01/02 01:02:49;;;;;;;16.63;8.43;;;;;;;13.48;65.95;101595.84;5188819;28;20780;-43
2022/01/02 01:05:25;;;;;;;13.50;8.35;;;;;;;13.47;65.95;101591.50;5192730;28;20811;-43
2022/01/02 01:08:01;;;;;;;20.25;8.70;;;;;;;13.46;66.00;101595.16;5203024;28;20495;-43
2022/01/02 01:10:37;;;;;;;15.15;8.23;;;;;;;13.47;66.00;101599.47;5191969;28;20426;-47
2022/01/02 01:13:10;;;;;;;19.88;8.63;;;;;;;13.49;66.11;101605.47;5202989;28;20428;-43
2022/01/02 01:15:43;;;;;;;23.23;8.60;;;;;;;13.41;66.20;101594.75;5185338;28;20413;-43
2022/01/02 01:18:15;;;;;;;20.67;8.68;;;;;;;13.41;66.14;101576.19;5199094;28;20417;-43
2022/01/02 01:20:48;;;;;;;21.15;8.30;;;;;;;13.48;66.07;101572.81;5194365;28;20494;-48
2022/01/02 01:23:22;;;;;;;15.13;8.15;;;;;;;13.49;66.05;101568.31;5195168;28;20460;-43
2022/01/02 01:25:54;;;;;;;24.43;8.57;;;;;;;13.48;66.09;101566.66;5193659;28;20465;-43
2022/01/02 01:28:26;;;;;;;16.10;7.40;;;;;;;13.46;66.22;101572.09;5193441;28;20426;-43
2022/01/02 01:30:59;;;;;;;22.55;9.05;;;;;;;13.43;66.37;101575.06;5193653;28;20442;-42
2022/01/02 01:33:32;;;;;;;15.05;7.88;;;;;;;13.42;66.33;101567.25;5203325;28;20425;-42
2022/01/02 01:36:04;;;;;;;25.55;8.63;;;;;;;13.33;66.42;101548.59;5190471;28;20421;-43
2022/01/02 01:38:38;;;;;;;20.95;8.50;;;;;;;13.42;66.63;101568.09;5187473;28;20433;-44
2022/01/02 01:41:18;;;;;;;24.05;8.32;;;;;;;13.43;66.48;101548.53;5184395;28;20915;-43
2022/01/02 01:44:05;;;;;;;19.53;8.00;;;;;;;13.45;66.41;101543.91;5177484;28;20529;-43
2022/01/02 01:46:40;;;;;;;17.50;7.80;;;;;;;13.47;66.57;101538.44;5190332;28;20420;-41
2022/01/02 01:49:18;;;;;;;19.35;8.68;;;;;;;13.48;66.33;101535.66;5197736;28;20423;-42
2022/01/02 01:51:51;;;;;;;17.10;8.15;;;;;;;13.51;66.44;101539.81;5193742;28;20520;-44
2022/01/02 01:54:25;;;;;;;21.95;7.55;;;;;;;13.50;66.39;101533.69;5200827;28;20471;-42
2022/01/02 01:56:57;;;;;;;21.13;8.05;;;;;;;13.53;66.44;101535.19;5198146;28;20944;-41
2022/01/02 01:59:30;;;;;;;17.23;7.63;;;;;;;13.55;66.34;101509.34;5187900;28;20518;-47
2022/01/02 02:02:02;;;;;;;19.83;8.27;;;;;;;13.53;66.49;101508.63;5182999;28;20446;-43
2022/01/02 02:04:35;;;;;;;27.00;8.20;;;;;;;13.55;66.46;101514.63;5185534;28;20479;-42
2022/01/02 02:07:07;;;;;;;18.65;7.95;;;;;;;13.49;66.48;101504.63;5189063;28;21702;-44
2022/01/02 02:09:57;;;;;;;18.35;8.40;;;;;;;13.56;66.63;101521.59;5189443;28;20883;-44
2022/01/02 02:12:30;;;;;;;18.83;7.93;;;;;;;13.52;66.41;101494.53;5196561;28;20415;-42
2022/01/02 02:15:03;;;;;;;23.30;8.40;;;;;;;13.59;66.52;101500.06;5192371;28;20461;-46
2022/01/02 02:17:37;;;;;;;22.17;7.75;;;;;;;13.59;66.63;101494.75;5191645;28;20423;-43
2022/01/02 02:20:16;;;;;;;22.05;7.50;;;;;;;13.60;66.63;101485.84;5189763;28;20459;-42
2022/01/02 02:22:52;;;;;;;25.05;7.78;;;;;;;13.33;66.71;101446.97;5192260;28;20409;-44
2022/01/02 02:25:28;;;;;;;21.77;7.07;;;;;;;13.62;66.79;101483.84;5192836;28;20813;-42
2022/01/02 02:28:03;;;;;;;19.00;8.20;;;;;;;13.66;66.64;101474.59;5192917;28;20493;-43
2022/01/02 02:30:38;;;;;;;19.20;8.25;;;;;;;13.66;66.70;101469.28;5194734;28;20793;-42
2022/01/02 02:33:11;;;;;;;23.70;8.30;;;;;;;13.67;66.69;101465.63;5197859;28;21222;-43
2022/01/02 02:35:47;;;;;;;18.30;7.53;;;;;;;13.70;66.61;101443.25;5188647;28;20510;-43
2022/01/02 02:38:20;;;;;;;27.33;7.65;;;;;;;13.69;66.66;101446.88;5198073;28;21173;-42
2022/01/02 02:40:52;;;;;;;22.15;7.50;;;;;;;13.68;66.71;101454.03;5188285;28;20417;-45
2022/01/02 02:43:30;;;;;;;22.50;8.45;;;;;;;13.72;66.82;101457.19;5188338;28;20521;-44
2022/01/02 02:49:05;;;;;;;18.02;7.82;;;;;;;13.71;66.86;101429.81;5188529;28;20849;-42
2022/01/02 02:51:49;;;;;;;20.63;7.50;;;;;;;13.73;66.79;101425.19;5199012;28;20523;-42
2022/01/02 02:54:25;;;;;;;16.98;7.13;;;;;;;13.75;66.86;101441.81;5193090;28;20416;-44
2022/01/02 02:56:59;;;;;;;19.70;6.75;;;;;;;13.74;66.74;101426.84;5208561;28;20498;-43
2022/01/02 02:59:35;;;;;;;25.33;7.53;;;;;;;13.75;66.81;101415.28;5190057;28;20431;-46
2022/01/02 03:02:08;;;;;;;17.40;7.28;;;;;;;13.77;66.91;101413.28;5205423;28;20484;-44
2022/01/02 03:04:40;;;;;;;17.58;6.93;;;;;;;13.77;66.86;101418.59;5198201;28;20410;-43
2022/01/02 03:07:14;;;;;;;25.05;7.78;;;;;;;13.80;66.89;101399.69;5194830;28;20455;-43
2022/01/02 03:09:49;;;;;;;25.33;7.93;;;;;;;13.83;66.91;101390.56;5196381;28;20417;-44
2022/01/02 03:12:21;;;;;;;19.08;6.55;;;;;;;13.86;66.85;101400.06;5187982;28;20459;-44
2022/01/02 03:14:54;;;;;;;18.27;6.80;;;;;;;13.86;66.93;101410.69;5199703;28;20928;-43
2022/01/02 03:17:26;;;;;;;24.00;7.03;;;;;;;13.89;66.94;101410.38;5201313;28;20916;-43
2022/01/02 03:19:58;;;;;;;24.38;6.55;;;;;;;13.93;67.01;101409.03;5196194;28;20422;-42
2022/01/02 03:22:32;;;;;;;26.00;6.47;;;;;;;13.99;66.94;101416.38;5197241;28;20786;-43
2022/01/02 03:25:05;;;;;;;25.75;6.32;;;;;;;14.04;66.56;101422.06;5202300;28;20435;-43
2022/01/02 03:27:38;;;;;;;19.13;6.50;;;;;;;14.06;66.79;101414.78;5197096;28;24640;-41
2022/01/02 03:30:12;;;;;;;17.20;6.13;;;;;;;13.98;66.75;101389.00;5201325;28;20450;-44
2022/01/02 03:32:45;;;;;;;21.02;6.25;;;;;;;14.01;66.91;101387.84;5193303;28;20411;-46
2022/01/02 03:35:17;;;;;;;20.67;5.13;;;;;;;14.08;66.88;101387.03;5193562;28;20417;-43
2022/01/02 03:37:51;;;;;;;23.83;6.60;;;;;;;14.12;66.87;101398.22;5180488;28;20429;-45
2022/01/02 03:40:23;;;;;;;18.67;5.53;;;;;;;14.13;66.87;101394.56;5197454;28;20405;-42
2022/01/02 03:42:56;;;;;;;21.45;5.07;;;;;;;14.17;66.82;101368.50;5191297;28;20925;-43
2022/01/02 03:45:28;;;;;;;21.05;5.90;;;;;;;14.19;66.79;101358.56;5200381;28;20750;-43
2022/01/02 03:48:01;;;;;;;16.35;5.25;;;;;;;14.23;66.69;101358.06;5189789;28;20922;-43
2022/01/02 03:50:33;;;;;;;20.17;5.43;;;;;;;14.26;66.87;101364.88;5192762;28;20430;-44
2022/01/02 03:53:07;;;;;;;15.52;6.07;;;;;;;14.29;66.79;101361.91;5191149;28;20911;-43
2022/01/02 03:55:40;;;;;;;19.25;5.72;;;;;;;14.32;66.78;101352.78;5189177;28;20417;-43
2022/01/02 03:58:12;;;;;;;16.45;5.93;;;;;;;14.34;66.71;101342.81;5196322;28;20437;-45
2022/01/02 04:00:45;;;;;;;22.73;5.45;;;;;;;14.35;66.70;101347.97;5192460;28;20897;-43
2022/01/02 04:03:17;;;;;;;15.37;5.30;;;;;;;14.36;66.70;101349.63;5184789;28;20523;-42
2022/01/02 04:05:50;;;;;;;16.97;5.43;;;;;;;14.35;66.84;101345.31;5197610;28;20409;-43
2022/01/02 04:08:23;;;;;;;14.07;4.63;;;;;;;14.36;66.74;101354.09;5187192;28;20759;-43
2022/01/02 04:10:56;;;;;;;16.58;5.53;;;;;;;14.40;66.66;101344.81;5185999;28;20501;-42
2022/01/02 04:13:28;;;;;;;14.65;5.15;;;;;;;14.38;66.75;101344.16;5197327;28;20419;-44
2022/01/02 04:16:01;;;;;;;18.15;6.05;;;;;;;14.38;66.67;101336.19;5192737;28;20411;-42
2022/01/02 04:18:33;;;;;;;19.15;6.05;;;;;;;14.35;66.70;101331.19;5195917;28;20941;-43
2022/01/02 04:21:05;;;;;;;23.08;5.82;;;;;;;14.29;66.82;101314.91;5202675;28;20429;-43
2022/01/02 04:23:39;;;;;;;17.02;4.78;;;;;;;14.35;66.86;101320.56;5202239;28;20429;-43
2022/01/02 04:26:11;;;;;;;15.13;5.00;;;;;;;14.33;66.73;101306.59;5199697;28;20414;-43
2022/01/02 04:28:43;;;;;;;16.25;4.95;;;;;;;14.30;66.79;101302.44;5193380;28;20864;-44
2022/01/02 04:31:16;;;;;;;15.07;5.15;;;;;;;14.28;66.70;101302.63;5191316;28;20791;-43
2022/01/02 04:33:48;;;;;;;16.63;4.97;;;;;;;14.25;66.81;101292.31;5187862;28;20502;-47
2022/01/02 04:36:21;;;;;;;18.85;5.43;;;;;;;14.27;66.82;101292.97;5197182;28;20504;-44
2022/01/02 04:38:54;;;;;;;20.48;5.10;;;;;;;14.26;66.79;101291.31;5196438;28;20424;-43
2022/01/02 04:41:26;;;;;;;15.48;4.85;;;;;;;14.26;66.71;101285.19;5190355;28;20423;-44
2022/01/02 04:43:59;;;;;;;18.27;4.93;;;;;;;14.25;66.71;101267.59;5186772;28;20413;-44
2022/01/02 04:46:31;;;;;;;16.93;5.53;;;;;;;14.27;66.69;101262.91;5192487;28;20423;-44
2022/01/02 04:49:04;;;;;;;20.53;5.00;;;;;;;14.27;66.61;101260.25;5200641;28;20407;-42
2022/01/02 04:51:36;;;;;;;12.82;4.38;;;;;;;14.26;66.70;101259.44;5185641;28;20417;-43
2022/01/02 04:54:10;;;;;;;15.30;4.63;;;;;;;14.25;66.77;101252.47;5191623;28;20420;-42
2022/01/02 04:56:42;;;;;;;15.88;4.40;;;;;;;14.15;66.84;101235.81;5198483;28;20403;-44
2022/01/02 04:59:15;;;;;;;18.88;5.15;;;;;;;14.19;66.88;101239.84;5198455;28;20439;-43
2022/01/02 05:01:47;;;;;;;18.95;5.45;;;;;;;14.25;66.72;101241.84;5194179;28;20411;-44
2022/01/02 05:04:20;;;;;;;12.18;4.60;;;;;;;14.26;66.82;101238.19;5179764;28;20423;-45
2022/01/02 05:06:52;;;;;;;12.30;4.45;;;;;;;14.25;66.61;101225.91;5191518;28;20431;-43
2022/01/02 05:09:26;;;;;;;14.13;5.15;;;;;;;14.25;66.67;101236.53;5195955;28;20411;-43
2022/01/02 05:11:58;;;;;;;14.77;4.82;;;;;;;14.21;66.70;101221.06;5184760;28;20502;-42
2022/01/02 05:14:30;;;;;;;18.02;5.00;;;;;;;14.19;66.69;101207.97;5186946;28;20415;-42
2022/01/02 05:17:03;;;;;;;17.98;4.70;;;;;;;14.19;66.63;101220.41;5201537;28;20540;-41
2022/01/02 05:19:35;;;;;;;14.02;4.47;;;;;;;14.19;66.66;101215.09;5194259;28;20477;-43
2022/01/02 05:22:08;;;;;;;14.77;4.32;;;;;;;14.16;66.85;101212.78;5195041;28;20427;-43
2022/01/02 05:24:41;;;;;;;18.63;6.13;;;;;;;14.14;66.78;101207.63;5186365;28;20412;-44
2022/01/02 05:27:14;;;;;;;16.50;4.77;;;;;;;14.13;66.70;101210.44;5185887;28;20419;-44
2022/01/02 05:29:46;;;;;;;14.93;4.90;;;;;;;14.13;66.69;101195.34;5187620;28;20503;-43
2022/01/02 05:32:18;;;;;;;16.27;4.60;;;;;;;14.13;66.64;101183.88;5197110;28;20432;-41
2022/01/02 05:34:51;;;;;;;13.33;5.17;;;;;;;14.11;66.77;101184.03;5183756;28;20427;-43
2022/01/02 05:37:23;;;;;;;13.00;5.07;;;;;;;14.13;66.63;101179.41;5192388;28;20397;-42
2022/01/02 05:39:57;;;;;;;13.30;4.68;;;;;;;14.14;66.63;101181.06;5185043;28;20419;-43
2022/01/02 05:42:29;;;;;;;9.95;4.18;;;;;;;14.15;66.51;101161.47;5197777;28;20510;-43
2022/01/02 05:45:01;;;;;;;16.67;5.03;;;;;;;14.13;66.56;101158.16;5196056;28;20425;-43
2022/01/02 05:47:33;;;;;;;13.95;4.93;;;;;;;14.10;66.52;101174.41;5190050;28;20719;-48
2022/01/02 05:50:08;;;;;;;15.97;4.77;;;;;;;14.12;66.49;101169.78;5202751;28;20453;-43
2022/01/02 05:52:40;;;;;;;11.33;5.00;;;;;;;14.08;66.53;101149.84;5198529;28;20804;-42
2022/01/02 05:55:14;;;;;;;15.50;5.23;;;;;;;14.06;66.51;101146.53;5185985;28;20519;-43
2022/01/02 05:57:46;;;;;;;15.90;5.32;;;;;;;14.05;66.54;101139.53;5194524;28;20417;-45
2022/01/02 06:00:19;;;;;;;15.98;5.07;;;;;;;14.01;66.47;101143.53;5179103;28;20402;-48
2022/01/02 06:02:51;;;;;;;13.38;4.50;;;;;;;13.97;66.58;101128.94;5197121;28;20433;-43
2022/01/02 06:05:23;;;;;;;11.50;4.90;;;;;;;13.96;66.53;101121.94;5194823;28;20778;-43
2022/01/02 06:07:55;;;;;;;11.60;4.72;;;;;;;13.97;66.46;101126.28;5186143;28;20439;-43
2022/01/02 06:10:29;;;;;;;14.40;4.97;;;;;;;13.99;66.45;101124.28;5202279;28;20436;-44
2022/01/02 06:13:02;;;;;;;16.10;4.75;;;;;;;13.96;66.56;101120.13;5191455;28;20420;-41
2022/01/02 06:15:34;;;;;;;17.10;4.88;;;;;;;13.99;66.39;101118.97;5192572;28;20439;-42
2022/01/02 06:18:06;;;;;;;17.40;4.80;;;;;;;14.03;66.27;101128.28;5189091;28;20441;-48
2022/01/02 06:20:39;;;;;;;13.43;4.50;;;;;;;14.04;66.46;101125.44;5196315;28;20401;-42
2022/01/02 06:23:11;;;;;;;15.30;4.72;;;;;;;14.04;66.30;101111.34;5204743;28;20429;-45
2022/01/02 06:25:45;;;;;;;11.85;5.00;;;;;;;14.00;66.38;101099.41;5195076;28;20495;-43
2022/01/02 06:28:18;;;;;;;10.35;4.43;;;;;;;14.01;66.50;101101.88;5202197;28;20528;-44
2022/01/02 06:30:50;;;;;;;11.45;4.15;;;;;;;14.01;66.55;101099.22;5189925;28;20398;-44
2022/01/02 06:33:22;;;;;;;14.60;4.45;;;;;;;13.99;66.51;101097.72;5195137;28;20457;-42
2022/01/02 06:35:55;;;;;;;10.38;4.72;;;;;;;13.89;66.52;101065.19;5202314;28;20410;-42
2022/01/02 06:38:28;;;;;;;11.07;4.38;;;;;;;13.99;66.60;101071.16;5190180;28;20419;-41
2022/01/02 06:41:02;;;;;;;9.60;3.95;;;;;;;13.90;66.64;101056.22;5189237;28;20505;-41
2022/01/02 06:43:34;;;;;;;11.20;4.40;;;;;;;13.97;66.69;101068.69;5185789;28;20593;-43
2022/01/02 06:46:07;;;;;;;12.63;4.82;;;;;;;13.97;66.63;101057.25;5207419;28;20417;-44
2022/01/02 06:48:39;;;;;;;14.82;4.72;;;;;;;13.97;66.55;101050.09;5198552;28;20422;-47
2022/01/02 06:51:11;;;;;;;11.93;4.50;;;;;;;13.95;66.54;101049.44;5191740;28;20420;-42
2022/01/02 06:53:44;;;;;;;15.35;5.85;;;;;;;13.95;66.61;101048.59;5205110;28;20445;-42
2022/01/02 06:56:17;;;;;;;14.05;4.80;;;;;;;13.98;66.62;101049.09;5202660;28;20407;-42
2022/01/02 06:58:50;;;;;;;10.63;4.78;;;;;;;13.95;66.53;101035.31;5194286;28;20467;-44
2022/01/02 07:01:22;;;;;;;13.17;4.50;;;;;;;13.95;66.65;101037.97;5184257;28;20478;-42
2022/01/02 07:03:54;;;;;;;12.60;4.45;;;;;;;13.94;66.71;101036.34;5183814;28;20893;-42
2022/01/02 07:06:27;;;;;;;13.03;5.10;;;;;;;13.93;66.63;101037.31;5190111;28;20443;-43
2022/01/02 07:08:59;;;;;;;14.02;4.78;;;;;;;13.91;66.76;101034.00;5197217;28;20429;-42
2022/01/02 07:11:33;;;;;;;14.90;4.70;;;;;;;13.87;66.83;101030.00;5193884;28;20429;-43
2022/01/02 07:14:05;;;;;;;13.48;4.68;;;;;;;13.86;66.76;101029.19;5201980;28;20427;-42
2022/01/02 07:16:37;;;;;;;12.68;5.30;;;;;;;13.87;66.57;101024.69;5193181;28;20419;-42
2022/01/02 07:19:10;;;;;;;13.57;5.32;;;;;;;13.83;66.65;101025.03;5194010;28;20423;-43
2022/01/02 07:21:42;;;;;;;20.20;7.53;;;;;;;13.80;66.89;101024.53;5203553;28;20413;-43
2022/01/02 07:24:14;;;;;;;22.60;8.48;;;;;;;13.82;66.73;101018.06;5185925;28;20415;-42
2022/01/02 07:26:48;;;;;;;16.85;7.72;;;;;;;13.78;66.66;101014.09;5196832;28;20419;-44
2022/01/02 07:29:21;;;;;;;18.07;8.03;;;;;;;13.79;66.63;101012.28;5181243;28;20492;-43
2022/01/02 07:31:54;;;;;;;14.85;7.05;;;;;;;13.80;66.74;101028.03;5190765;28;20409;-47
2022/01/02 07:34:26;;;;;;;10.15;5.30;;;;;;;13.79;66.82;101022.91;5190581;28;20430;-43
2022/01/02 07:36:59;;;;;;;12.63;5.53;;;;;;;13.74;66.91;101026.03;5192739;28;20419;-47
2022/01/02 07:39:31;;;;;;;14.03;6.00;;;;;;;13.66;66.91;101007.47;5194276;28;20445;-47
2022/01/02 07:42:06;;;;;;;9.73;5.00;;;;;;;13.70;66.88;101024.72;5199458;28;20443;-41
2022/01/02 07:44:38;;;;;;;13.70;6.00;;;;;;;13.69;67.00;101028.38;5195743;28;20898;-43
2022/01/02 07:47:11;;;;;;;19.90;6.32;;;;;;;13.74;66.89;101033.16;5192579;28;20479;-42
2022/01/02 07:49:43;;;;;;;17.42;5.80;;;;;;;13.74;66.81;101030.50;5202602;28;20833;-46
2022/01/02 07:52:16;;;;;;;13.50;6.00;;;;;;;13.71;66.81;101031.66;5204339;28;20887;-43
2022/01/02 07:54:48;;;;;;;13.20;6.00;;;;;;;13.65;66.89;101015.56;5190232;28;21492;-43
2022/01/02 07:57:22;;;;;;;12.98;5.85;;;;;;;13.67;66.74;101022.38;5190503;28;20401;-44
2022/01/02 07:59:54;;;;;;;16.77;6.57;;;;;;;13.65;66.76;101010.28;5198203;28;20828;-43
2022/01/02 08:02:27;;;;;;;14.65;6.43;;;;;;;13.62;66.83;101008.78;5197614;28;20459;-44
2022/01/02 08:04:59;;;;;;;12.98;5.75;;;;;;;13.66;66.79;101011.91;5200462;28;21065;-43
2022/01/02 08:07:31;;;;;;;15.30;5.93;;;;;;;13.66;66.86;101010.13;5190949;28;20415;-43
2022/01/02 08:10:05;;;;;;;12.60;6.30;;;;;;;13.68;66.74;101001.97;5192976;28;20421;-48
2022/01/02 08:12:38;;;;;;;12.73;5.70;;;;;;;13.68;66.70;101005.47;5184952;28;20859;-41
2022/01/02 08:15:11;;;;;;;15.40;5.75;;;;;;;13.68;66.74;101009.94;5197981;28;20407;-43
2022/01/02 08:17:43;;;;;;;12.55;5.65;;;;;;;13.67;66.86;101000.34;5196878;28;20763;-44
2022/01/02 08:20:16;;;;;;;11.75;5.22;;;;;;;13.66;66.91;100986.25;5185602;28;20415;-42
2022/01/02 08:22:48;;;;;;;13.63;6.33;;;;;;;13.68;66.91;100986.06;5187567;28;20937;-41
2022/01/02 08:25:21;;;;;;;12.90;5.50;;;;;;;13.69;66.90;100985.06;5193033;28;20399;-42
2022/01/02 08:27:55;;;;;;;14.13;5.33;;;;;;;13.72;66.92;101003.28;5200805;28;20471;-42
2022/01/02 08:30:27;;;;;;;12.65;5.13;;;;;;;13.71;67.03;100983.06;5201888;28;20427;-45
2022/01/02 08:32:59;;;;;;;13.05;5.40;;;;;;;13.73;67.01;100987.22;5194296;28;20429;-42
2022/01/02 08:35:32;;;;;;;15.18;5.18;;;;;;;13.73;67.05;100981.91;5196563;28;20411;-43
2022/01/02 08:38:04;;;;;;;16.98;5.30;;;;;;;13.78;67.07;101006.13;5198007;28;20432;-45
2022/01/02 08:40:37;;;;;;;11.47;5.43;;;;;;;13.82;66.98;100991.53;5197601;28;20450;-43
2022/01/02 08:43:11;;;;;;;16.52;6.00;;;;;;;13.86;66.88;100980.56;5195523;28;20446;-43
2022/01/02 08:45:44;;;;;;;20.67;5.55;;;;;;;13.88;66.89;100975.94;5197400;28;20424;-43
2022/01/02 08:48:16;;;;;;;15.82;5.60;;;;;;;13.91;66.82;100988.88;5194248;28;20494;-43
2022/01/02 08:50:48;;;;;;;14.45;5.25;;;;;;;13.88;66.83;100970.63;5195153;28;20492;-43
2022/01/02 08:53:21;;;;;;;16.88;6.10;;;;;;;13.99;66.75;100992.31;5188245;28;20407;-42
2022/01/02 08:55:53;;;;;;;15.98;4.60;;;;;;;14.03;66.69;100995.50;5193779;28;20430;-44
2022/01/02 08:58:27;;;;;;;20.13;6.28;;;;;;;14.06;66.62;101005.78;5200812;28;20421;-42
2022/01/02 09:01:00;;;;;;;22.40;5.95;;;;;;;14.09;66.56;100984.19;5195710;28;20410;-43
2022/01/02 09:03:34;;;;;;;17.98;6.13;;;;;;;14.10;66.61;100988.50;5202017;28;20839;-42
2022/01/02 09:06:06;;;;;;;15.18;6.25;;;;;;;14.07;66.65;100978.22;5200804;28;20851;-42
2022/01/02 09:08:38;;;;;;;16.47;5.17;;;;;;;14.12;66.58;100965.28;5194569;28;20787;-43
2022/01/02 09:11:11;;;;;;;24.63;6.70;;;;;;;14.12;66.70;100965.28;5191935;28;20438;-42
2022/01/02 09:13:44;;;;;;;15.77;6.17;;;;;;;14.11;66.61;100974.22;5194693;28;20496;-43
2022/01/02 09:16:17;;;;;;;18.02;5.68;;;;;;;13.88;66.62;100933.47;5194873;28;20422;-45
2022/01/02 09:18:49;;;;;;;17.02;5.95;;;;;;;14.12;66.55;100983.00;5188547;28;20437;-49
2022/01/02 09:21:22;;;;;;;15.48;5.75;;;;;;;14.12;66.57;100986.53;5192814;28;20418;-44
2022/01/02 09:23:54;;;;;;;16.83;5.05;;;;;;;14.16;66.36;100993.16;5193914;28;20425;-46
2022/01/02 09:26:26;;;;;;;19.65;6.10;;;;;;;14.17;66.29;100994.78;5188710;28;20425;-43
2022/01/02 09:29:00;;;;;;;12.70;5.82;;;;;;;14.21;66.21;100989.97;5190537;28;20596;-44
2022/01/02 09:31:32;;;;;;;15.27;5.13;;;;;;;14.21;66.23;100996.09;5194968;28;20454;-44
2022/01/02 09:34:05;;;;;;;16.93;5.77;;;;;;;14.21;66.12;101001.41;5198994;28;20413;-43
2022/01/02 09:36:38;;;;;;;14.38;5.43;;;;;;;14.15;66.11;100990.63;5202539;28;20498;-45
2022/01/02 09:39:10;;;;;;;18.57;6.27;;;;;;;14.20;66.11;101005.06;5181828;28;20961;-44
2022/01/02 09:41:43;;;;;;;15.47;5.70;;;;;;;14.05;65.93;100964.28;5203252;28;20436;-43
2022/01/02 09:44:17;;;;;;;17.10;5.35;;;;;;;14.12;66.13;100973.25;5190628;28;20978;-44
2022/01/02 09:46:51;;;;;;;18.45;6.18;;;;;;;14.19;66.09;100995.47;5188447;28;20420;-46
2022/01/02 09:49:24;;;;;;;17.00;5.85;;;;;;;14.20;66.02;101004.25;5196318;28;20430;-42
2022/01/02 09:51:56;;;;;;;15.23;6.15;;;;;;;14.17;66.09;101020.53;5195314;28;20431;-43
2022/01/02 09:54:29;;;;;;;17.38;5.72;;;;;;;14.14;66.00;101004.94;5204398;28;20986;-42
2022/01/02 09:57:02;;;;;;;18.75;5.38;;;;;;;14.07;66.03;101002.13;5189893;28;20410;-43
2022/01/02 09:59:36;;;;;;;16.02;5.47;;;;;;;14.09;66.00;101013.41;5196968;28;20415;-44
2022/01/02 10:02:09;;;;;;;21.23;6.10;;;;;;;14.04;65.89;100997.16;5189941;28;20693;-43
2022/01/02 10:04:43;;;;;;;22.65;6.45;;;;;;;14.00;65.92;100985.22;5194956;28;20784;-44
2022/01/02 10:07:30;;;;;;;14.98;5.13;;;;;;;14.09;65.93;101002.78;5192900;28;20421;-43
2022/01/02 10:10:10;;;;;;;18.67;6.00;;;;;;;14.13;65.67;100995.31;5192741;28;20496;-43
2022/01/02 10:12:43;;;;;;;24.25;6.28;;;;;;;14.10;65.71;101007.09;5196970;28;20474;-43
2022/01/02 10:15:20;;;;;;;23.13;6.78;;;;;;;14.08;65.71;100990.50;5197415;28;20478;-42
2022/01/02 10:17:56;;;;;;;21.55;6.85;;;;;;;14.08;65.56;100990.50;5187039;28;21146;-43
2022/01/02 10:20:31;;;;;;;18.75;6.45;;;;;;;14.08;65.54;101001.94;5192783;28;20828;-43
2022/01/02 10:23:14;;;;;;;26.65;6.22;;;;;;;14.01;65.68;100987.69;5193897;28;20450;-45
2022/01/02 10:25:51;;;;;;;25.88;7.55;;;;;;;14.07;65.38;100991.50;5194750;28;20647;-44
2022/01/02 10:28:36;;;;;;;21.08;6.30;;;;;;;14.02;65.41;100980.53;5191059;28;20789;-43
2022/01/02 10:31:14;;;;;;;23.63;7.03;;;;;;;14.02;65.48;100996.47;5197019;28;20413;-43
2022/01/02 10:33:53;;;;;;;35.00;7.22;;;;;;;13.94;65.53;100978.75;5192564;28;20437;-43
2022/01/02 10:36:28;;;;;;;27.17;6.85;;;;;;;14.00;65.48;100987.88;5193308;28;20407;-42
2022/01/02 10:39:05;;;;;;;18.05;5.47;;;;;;;14.01;65.37;100984.22;5199558;28;20406;-43
2022/01/02 10:41:41;;;;;;;31.83;6.80;;;;;;;14.03;65.34;101003.47;5195150;28;20429;-43
2022/01/02 10:44:29;;;;;;;26.85;7.45;;;;;;;14.04;65.33;100999.81;5203914;28;20493;-43
2022/01/02 10:47:16;;;;;;;28.73;7.03;;;;;;;14.04;65.20;101010.44;5189967;28;20419;-44
2022/01/02 10:49:52;;;;;;;30.63;7.97;;;;;;;14.02;65.18;101012.41;5189657;28;20473;-46
2022/01/02 10:52:28;;;;;;;22.88;6.88;;;;;;;14.00;65.13;100998.50;5195087;28;20411;-43
2022/01/02 10:55:06;;;;;;;23.42;5.82;;;;;;;14.00;65.16;100995.84;5190759;28;20739;-46
2022/01/02 10:57:38;;;;;;;29.93;7.37;;;;;;;13.99;65.21;100994.16;5195448;28;20547;-42
2022/01/02 11:00:12;;;;;;;34.90;7.25;;;;;;;13.88;65.25;101003.31;5198052;28;20752;-43
2022/01/02 11:02:47;;;;;;;25.73;7.05;;;;;;;13.98;65.34;100996.00;5199750;28;20411;-43
2022/01/02 11:05:22;;;;;;;28.33;7.90;;;;;;;14.00;65.31;100998.50;5182673;28;20407;-48
2022/01/02 11:07:59;;;;;;;33.80;7.63;;;;;;;13.94;64.86;100988.53;5192359;28;20409;-42
2022/01/02 11:10:33;;;;;;;35.90;7.27;;;;;;;14.07;65.09;100988.84;5190576;28;20853;-42
2022/01/02 11:13:07;;;;;;;31.42;8.35;;;;;;;14.05;65.15;100993.47;5198596;28;20423;-42
2022/01/02 11:15:39;;;;;;;42.08;9.10;;;;;;;14.12;65.10;101004.25;5194196;28;23335;-43
2022/01/02 11:18:13;;;;;;;29.40;7.65;;;;;;;14.08;65.07;101011.75;5201782;28;20421;-43
2022/01/02 11:20:46;;;;;;;33.65;8.32;;;;;;;14.06;65.14;101008.44;5200875;28;20489;-46
2022/01/02 11:23:25;;;;;;;34.42;8.68;;;;;;;14.02;65.20;101013.22;5207549;28;20433;-42
2022/01/02 11:26:08;;;;;;;33.40;8.82;;;;;;;14.01;65.13;101021.38;5190899;28;20406;-44
2022/01/02 11:28:45;;;;;;;24.30;7.90;;;;;;;14.03;65.07;101019.41;5190553;28;20408;-44
2022/01/02 11:31:30;;;;;;;42.50;9.17;;;;;;;14.07;64.92;101023.38;5194436;28;20415;-43
2022/01/02 11:34:23;;;;;;;28.88;7.32;;;;;;;14.07;64.81;101015.41;5199077;28;20417;-43
2022/01/02 11:37:26;;;;;;;33.67;8.02;;;;;;;14.06;65.03;101021.72;5195527;28;20453;-43
2022/01/02 11:40:01;;;;;;;36.15;7.78;;;;;;;13.96;64.93;101003.28;5192101;28;20881;-43
2022/01/02 11:42:48;;;;;;;38.15;8.00;;;;;;;14.06;64.99;101030.50;5193813;28;20423;-43
2022/01/02 11:45:44;;;;;;;35.60;8.55;;;;;;;14.13;64.92;101027.19;5193964;28;20451;-43
2022/01/02 11:48:28;;;;;;;31.13;7.65;;;;;;;14.12;65.09;101042.28;5187973;28;20423;-42
2022/01/02 11:51:01;;;;;;;38.38;8.30;;;;;;;14.10;64.89;101023.03;5187010;28;20419;-43
2022/01/02 11:53:35;;;;;;;33.22;8.25;;;;;;;14.11;64.87;101040.63;5199969;28;20409;-44